Time;durP1;ratioP1;P1;durP2;ratioP2;P2;SDS_P1;SDS_P2;PMS_P1;PMS_P2;Temp;Humidity;BMP_temperature;BMP_pressure;BME280_temperature;BME280_humidity;BME280_pressure;Samples;Min_cycle;Max_cycle;Signal;HPM_P1;HPM_P2
2021/12/05 00:19:56;;;;;;;2.42;0.90;;;18.00;53.30;;;;;;5067175;28;45560;-74
2021/12/05 00:22:32;;;;;;;2.50;0.90;;;18.00;53.20;;;;;;5069576;28;45260;-74
2021/12/05 00:25:05;;;;;;;3.30;1.20;;;18.00;55.00;;;;;;5064904;28;47915;-74
2021/12/05 00:27:38;;;;;;;4.18;1.27;;;18.00;52.80;;;;;;5065667;28;45587;-74
2021/12/05 00:30:19;;;;;;;3.97;1.17;;;18.10;52.40;;;;;;5067628;28;45235;-73
2021/12/05 00:32:52;;;;;;;2.50;1.20;;;18.00;52.20;;;;;;5067023;28;45157;-73
2021/12/05 00:41:27;;;;;;;2.90;0.93;;;18.00;52.20;;;;;;5066863;28;45351;-75
2021/12/05 00:47:06;;;;;;;1.60;0.80;;;18.00;52.20;;;;;;5057770;28;45549;-75
2021/12/05 00:49:58;;;;;;;2.83;0.85;;;18.00;52.20;;;;;;5062014;28;45263;-75
2021/12/05 00:52:53;;;;;;;1.83;0.88;;;18.00;52.20;;;;;;5066828;28;45357;-75
2021/12/05 00:55:39;;;;;;;3.28;0.93;;;18.00;52.30;;;;;;5064282;28;45367;-76
2021/12/05 01:01:46;;;;;;;1.55;0.80;;;18.00;52.20;;;;;;4997099;28;45342;-76
2021/12/05 01:04:36;;;;;;;2.83;1.08;;;18.00;52.20;;;;;;4986218;28;45358;-76
2021/12/05 01:10:03;;;;;;;2.60;0.70;;;18.00;52.20;;;;;;5051800;28;46332;-76
2021/12/05 01:12:42;;;;;;;2.45;0.85;;;18.00;52.20;;;;;;5055835;28;45268;-76
2021/12/05 01:15:13;;;;;;;2.10;1.02;;;18.00;52.20;;;;;;5054044;28;45907;-76
2021/12/05 01:17:55;;;;;;;2.28;0.73;;;18.00;52.20;;;;;;5069750;28;45430;-76
2021/12/05 01:20:23;;;;;;;1.52;0.90;;;18.00;52.20;;;;;;5057447;28;46414;-76
2021/12/05 01:22:58;;;;;;;3.00;1.17;;;18.00;52.20;;;;;;5063846;28;45335;-76
2021/12/05 01:25:36;;;;;;;1.80;0.70;;;18.00;52.20;;;;;;5066095;28;45438;-76
2021/12/05 01:28:12;;;;;;;3.13;1.00;;;18.00;52.20;;;;;;5068324;28;45200;-76
2021/12/05 01:30:46;;;;;;;2.42;0.82;;;18.00;52.20;;;;;;5065250;28;47495;-76
2021/12/05 01:33:19;;;;;;;2.92;0.90;;;18.00;52.20;;;;;;5067495;28;45330;-76
2021/12/05 01:35:58;;;;;;;2.65;0.85;;;18.00;51.90;;;;;;5066804;28;45696;-76
2021/12/05 01:38:41;;;;;;;1.70;0.90;;;18.00;51.50;;;;;;5072023;28;45188;-76
2021/12/05 01:49:49;;;;;;;2.45;1.20;;;18.00;51.40;;;;;;5049091;28;45294;-76
2021/12/05 01:52:47;;;;;;;2.15;0.90;;;18.00;51.40;;;;;;5060609;28;48182;-76
2021/12/05 01:58:23;;;;;;;3.72;0.95;;;18.00;51.30;;;;;;5056534;28;45321;-76
2021/12/05 02:01:22;;;;;;;2.03;0.90;;;18.00;51.20;;;;;;5087799;28;45216;-76
2021/12/05 02:09:52;;;;;;;1.42;0.90;;;18.00;51.10;;;;;;5056164;28;45678;-76
2021/12/05 02:15:27;;;;;;;2.38;1.00;;;18.00;51.20;;;;;;5073184;28;46083;-76
2021/12/05 02:34:41;;;;;;;1.52;0.70;;;18.00;50.50;;;;;;5070673;28;45351;-76
2021/12/05 02:37:23;;;;;;;2.67;0.90;;;18.00;50.90;;;;;;5055744;28;46184;-76
2021/12/05 02:40:06;;;;;;;1.88;0.60;;;18.00;50.50;;;;;;5046356;28;45378;-76
2021/12/05 02:42:35;;;;;;;4.18;1.23;;;18.00;50.90;;;;;;5054489;28;46364;-76
2021/12/05 02:45:06;;;;;;;2.50;0.90;;;18.00;52.20;;;;;;5046550;28;45391;-76
2021/12/05 02:47:34;;;;;;;2.13;0.77;;;18.00;52.90;;;;;;5062160;28;46694;-76
2021/12/05 02:50:06;;;;;;;2.45;0.70;;;18.00;53.30;;;;;;5072857;28;45302;-76
2021/12/05 02:52:38;;;;;;;3.22;0.80;;;18.00;53.30;;;;;;5086662;28;45447;-75
2021/12/05 02:55:12;;;;;;;1.85;0.70;;;18.00;52.70;;;;;;5069446;28;45557;-75
2021/12/05 02:57:53;;;;;;;1.83;0.70;;;18.00;52.30;;;;;;5079762;28;45428;-75
2021/12/05 03:00:34;;;;;;;1.33;0.80;;;18.00;52.20;;;;;;5074618;28;45287;-75
2021/12/05 03:03:01;;;;;;;2.75;1.08;;;18.10;52.60;;;;;;5052946;28;45116;-75
2021/12/05 03:05:29;;;;;;;1.48;0.60;;;18.00;53.10;;;;;;5049464;28;45604;-75
2021/12/05 03:08:01;;;;;;;1.63;0.70;;;18.00;53.20;;;;;;5080269;28;47859;-75
2021/12/05 03:10:28;;;;;;;1.85;0.70;;;18.10;52.90;;;;;;5050553;28;45178;-75
2021/12/05 03:12:55;;;;;;;1.73;0.90;;;18.00;52.90;;;;;;5081205;28;45330;-76
2021/12/05 03:15:22;;;;;;;0.73;0.40;;;18.00;53.10;;;;;;5069082;28;45214;-76
2021/12/05 03:17:49;;;;;;;1.85;0.90;;;18.10;53.50;;;;;;5074006;28;46525;-76
2021/12/05 03:20:18;;;;;;;1.30;0.70;;;18.10;53.50;;;;;;5069049;28;45183;-76
2021/12/05 03:22:45;;;;;;;2.05;0.60;;;18.10;52.90;;;;;;5073463;28;45821;-76
2021/12/05 03:25:14;;;;;;;2.42;0.90;;;18.10;52.30;;;;;;5072980;28;45473;-76
2021/12/05 03:27:42;;;;;;;2.33;0.95;;;18.10;52.30;;;;;;5089557;28;48189;-76
2021/12/05 03:30:11;;;;;;;1.15;0.60;;;18.10;52.30;;;;;;5086753;28;45144;-76
2021/12/05 03:32:39;;;;;;;1.65;0.80;;;18.10;51.70;;;;;;5069094;28;45176;-76
2021/12/05 03:35:08;;;;;;;2.33;0.77;;;18.10;51.10;;;;;;5061168;28;45140;-76
2021/12/05 03:37:35;;;;;;;1.58;0.60;;;18.10;51.10;;;;;;5081568;28;48002;-76
2021/12/05 03:40:03;;;;;;;2.22;0.80;;;18.10;51.20;;;;;;5089094;28;45283;-76
2021/12/05 03:42:32;;;;;;;2.55;0.73;;;18.00;50.50;;;;;;5083565;28;45204;-76
2021/12/05 03:44:59;;;;;;;1.38;0.60;;;18.00;50.80;;;;;;5049074;28;45344;-76
2021/12/05 03:47:28;;;;;;;0.93;0.70;;;18.00;50.40;;;;;;5069988;28;46225;-76
2021/12/05 03:49:56;;;;;;;1.80;0.60;;;18.00;50.20;;;;;;5069617;28;45352;-76
2021/12/05 03:52:23;;;;;;;1.33;0.80;;;18.00;50.00;;;;;;5083431;28;45349;-76
2021/12/05 03:54:51;;;;;;;1.50;0.60;;;18.00;50.30;;;;;;5089142;28;45128;-76
2021/12/05 03:57:18;;;;;;;1.27;0.52;;;18.00;50.70;;;;;;5087985;27;45302;-76
2021/12/05 03:59:46;;;;;;;1.75;0.60;;;18.00;49.80;;;;;;5078690;28;45243;-76
2021/12/05 04:02:13;;;;;;;0.93;0.63;;;18.00;51.50;;;;;;5073653;28;45312;-76
2021/12/05 04:04:40;;;;;;;2.88;1.20;;;18.00;49.80;;;;;;5077377;28;45497;-76
2021/12/05 04:07:08;;;;;;;2.72;0.70;;;18.00;50.10;;;;;;5074067;28;48137;-76
2021/12/05 04:09:36;;;;;;;1.42;0.70;;;18.00;49.30;;;;;;5069938;28;45215;-76
2021/12/05 04:12:04;;;;;;;1.00;0.40;;;18.00;49.10;;;;;;5067222;28;45336;-76
2021/12/05 04:14:35;;;;;;;2.70;0.80;;;18.00;49.50;;;;;;5060631;28;45308;-76
2021/12/05 04:17:06;;;;;;;1.40;0.55;;;18.00;49.40;;;;;;5065109;28;45309;-76
2021/12/05 04:19:33;;;;;;;0.70;0.40;;;18.00;49.50;;;;;;5065845;28;45848;-76
2021/12/05 04:22:01;;;;;;;2.45;0.75;;;18.00;49.10;;;;;;5067095;28;46290;-76
2021/12/05 04:24:28;;;;;;;0.90;0.50;;;18.00;49.50;;;;;;5055984;28;45202;-76
2021/12/05 04:26:55;;;;;;;1.20;0.50;;;18.00;49.20;;;;;;5063599;28;45323;-76
2021/12/05 04:29:22;;;;;;;1.73;0.55;;;18.00;49.00;;;;;;5065716;28;45448;-76
2021/12/05 04:31:50;;;;;;;1.75;0.68;;;18.00;49.20;;;;;;5057085;28;45223;-76
2021/12/05 04:34:18;;;;;;;1.42;0.60;;;18.00;49.00;;;;;;5087846;28;45286;-76
2021/12/05 04:36:45;;;;;;;2.33;0.52;;;18.00;49.20;;;;;;5085511;28;45221;-76
2021/12/05 04:39:13;;;;;;;1.92;0.70;;;18.00;49.20;;;;;;5051732;28;45176;-76
2021/12/05 04:41:41;;;;;;;1.27;0.70;;;18.00;49.40;;;;;;5056533;28;45343;-76
2021/12/05 04:44:08;;;;;;;1.67;0.50;;;18.00;49.30;;;;;;5066644;28;45148;-76
2021/12/05 04:46:36;;;;;;;1.30;0.65;;;18.00;49.20;;;;;;5078410;28;47544;-76
2021/12/05 04:49:06;;;;;;;1.20;0.68;;;18.00;49.20;;;;;;5078593;28;45356;-76
2021/12/05 04:51:37;;;;;;;1.65;0.70;;;18.00;49.10;;;;;;5051053;28;45200;-76
2021/12/05 04:54:04;;;;;;;2.97;0.68;;;18.00;49.30;;;;;;5066495;28;45324;-76
2021/12/05 04:56:31;;;;;;;1.75;0.50;;;18.00;49.10;;;;;;5063373;28;45340;-76
2021/12/05 04:58:59;;;;;;;1.33;0.63;;;18.00;49.30;;;;;;5066296;28;45300;-76
2021/12/05 05:01:26;;;;;;;1.90;0.60;;;18.00;49.20;;;;;;5083833;28;45196;-76
2021/12/05 05:03:53;;;;;;;1.85;0.75;;;18.00;49.10;;;;;;5056252;28;45263;-76
2021/12/05 05:06:22;;;;;;;1.15;0.50;;;18.00;48.90;;;;;;5082994;28;45717;-76
2021/12/05 05:08:54;;;;;;;0.90;0.50;;;18.00;48.80;;;;;;5087710;28;45204;-76
2021/12/05 05:11:26;;;;;;;1.50;0.70;;;18.00;48.50;;;;;;5087390;28;45278;-76
2021/12/05 05:13:53;;;;;;;1.48;0.60;;;18.00;48.50;;;;;;5063215;28;45206;-76
2021/12/05 05:16:22;;;;;;;1.77;0.60;;;18.00;48.50;;;;;;5316358;22;47420;-75
2021/12/05 05:18:52;;;;;;;1.25;0.50;;;18.00;48.80;;;;;;5096880;27;45464;-75
2021/12/05 05:21:33;;;;;;;1.15;0.40;;;18.00;48.60;;;;;;5106704;27;45226;-75
2021/12/05 05:27:08;;;;;;;1.42;0.50;;;18.00;48.10;;;;;;5062457;27;46299;-76
2021/12/05 05:40:56;;;;;;;1.80;0.60;;;18.00;48.10;;;;;;5103256;27;45195;-75
2021/12/05 05:43:33;;;;;;;0.93;0.30;;;18.00;48.30;;;;;;5099841;27;45160;-75
2021/12/05 05:46:10;;;;;;;0.88;0.40;;;18.00;48.40;;;;;;5107973;27;45589;-76
2021/12/05 05:48:48;;;;;;;1.33;0.52;;;18.00;48.30;;;;;;5097952;27;47362;-76
2021/12/05 05:51:18;;;;;;;0.63;0.40;;;18.00;48.30;;;;;;5106527;27;45188;-76
2021/12/05 05:53:47;;;;;;;0.85;0.38;;;18.00;48.40;;;;;;5089574;27;45198;-76
2021/12/05 05:56:21;;;;;;;1.20;0.55;;;18.00;48.30;;;;;;5102040;27;45558;-76
2021/12/05 05:58:52;;;;;;;0.75;0.38;;;18.00;48.30;;;;;;5105721;27;47349;-75
2021/12/05 06:01:41;;;;;;;1.25;0.40;;;18.00;48.20;;;;;;5106607;27;45375;-75
2021/12/05 06:04:08;;;;;;;1.13;0.40;;;18.00;48.00;;;;;;5108120;27;45245;-75
2021/12/05 06:06:35;;;;;;;0.77;0.32;;;18.00;47.70;;;;;;5101304;27;45237;-75
2021/12/05 06:09:03;;;;;;;0.90;0.40;;;18.00;47.60;;;;;;5093447;27;46084;-75
2021/12/05 06:11:32;;;;;;;1.40;0.38;;;18.00;48.60;;;;;;5105024;27;45475;-75
2021/12/05 06:13:59;;;;;;;1.67;0.32;;;18.00;48.80;;;;;;5107204;27;45278;-75
2021/12/05 06:16:26;;;;;;;1.77;0.40;;;18.00;48.70;;;;;;5095379;27;45366;-75
2021/12/05 06:18:53;;;;;;;0.68;0.38;;;18.00;48.30;;;;;;5093979;27;46736;-75
2021/12/05 06:21:20;;;;;;;1.25;0.50;;;18.00;48.40;;;;;;5094431;27;45207;-75
2021/12/05 06:23:47;;;;;;;1.80;0.60;;;18.00;48.50;;;;;;5109311;27;45282;-76
2021/12/05 06:26:20;;;;;;;0.70;0.60;;;18.00;48.10;;;;;;5110528;27;45420;-76
2021/12/05 06:28:59;;;;;;;1.55;0.55;;;17.90;48.20;;;;;;5107560;27;47012;-75
2021/12/05 06:31:39;;;;;;;1.25;0.45;;;18.00;48.20;;;;;;5105209;27;45139;-75
2021/12/05 06:37:09;;;;;;;2.88;0.40;;;17.90;48.00;;;;;;5099213;27;45770;-75
2021/12/05 06:39:45;;;;;;;0.63;0.40;;;17.90;47.90;;;;;;5106777;27;46601;-76
2021/12/05 06:42:45;;;;;;;1.30;0.43;;;17.90;47.90;;;;;;5108072;27;45186;-76
2021/12/05 06:47:58;;;;;;;1.60;0.52;;;17.90;48.00;;;;;;5109593;27;45300;-75
2021/12/05 06:50:25;;;;;;;1.05;0.40;;;17.90;48.00;;;;;;5103025;27;47013;-75
2021/12/05 06:52:52;;;;;;;1.92;0.60;;;17.90;48.20;;;;;;5106432;27;45259;-75
2021/12/05 06:55:18;;;;;;;2.70;0.52;;;17.90;48.80;;;;;;5106374;27;45547;-74
2021/12/05 06:57:46;;;;;;;1.38;0.52;;;17.90;47.90;;;;;;5096403;27;45485;-74
2021/12/05 07:00:17;;;;;;;2.60;0.50;;;17.90;47.90;;;;;;5094840;27;45951;-74
2021/12/05 07:02:44;;;;;;;1.35;0.60;;;17.90;47.70;;;;;;5092927;27;45500;-75
2021/12/05 07:07:52;;;;;;;0.25;0.20;;;17.90;47.70;;;;;;5085276;27;45253;-75
2021/12/05 07:10:20;;;;;;;1.05;0.50;;;17.90;47.70;;;;;;5095484;27;47134;-75
2021/12/05 07:15:51;;;;;;;1.13;0.52;;;17.90;47.70;;;;;;5106186;27;45266;-75
2021/12/05 07:21:06;;;;;;;2.15;0.80;;;17.90;47.50;;;;;;5109583;27;45952;-75
2021/12/05 07:23:46;;;;;;;1.70;0.60;;;17.90;47.60;;;;;;5101532;27;45219;-75
2021/12/05 07:26:17;;;;;;;1.27;0.50;;;17.80;47.50;;;;;;5097479;27;45170;-75
2021/12/05 07:42:28;;;;;;;0.85;0.52;;;17.80;47.60;;;;;;5098314;27;45919;-75
2021/12/05 07:44:57;;;;;;;0.82;0.52;;;17.80;47.70;;;;;;5102642;27;45752;-75
2021/12/05 07:47:30;;;;;;;1.33;0.45;;;17.80;47.80;;;;;;5101577;27;45322;-75
2021/12/05 07:49:58;;;;;;;0.82;0.60;;;17.80;48.00;;;;;;5102274;27;45571;-75
2021/12/05 07:52:28;;;;;;;1.20;0.80;;;17.80;47.80;;;;;;5102797;27;47292;-75
2021/12/05 07:55:00;;;;;;;1.10;0.63;;;17.80;47.70;;;;;;5100532;27;45339;-75
2021/12/05 07:57:31;;;;;;;1.88;0.98;;;17.80;47.90;;;;;;5104221;27;45956;-75
2021/12/05 08:00:09;;;;;;;2.25;0.80;;;17.80;48.00;;;;;;5109523;27;45155;-75
2021/12/05 08:16:26;;;;;;;2.63;0.90;;;17.80;48.10;;;;;;5104314;27;45416;-75
2021/12/05 08:18:54;;;;;;;1.23;0.75;;;17.80;47.50;;;;;;5097777;27;45332;-75
2021/12/05 08:21:21;;;;;;;1.63;0.75;;;17.80;47.80;;;;;;5099233;27;45595;-75
2021/12/05 08:23:50;;;;;;;1.88;0.90;;;17.80;47.70;;;;;;5105507;27;46195;-75
2021/12/05 08:26:21;;;;;;;1.90;0.98;;;17.80;47.80;;;;;;5101871;27;45367;-75
2021/12/05 08:29:00;;;;;;;2.78;0.98;;;17.80;47.70;;;;;;5101554;27;45340;-75
2021/12/05 08:31:36;;;;;;;1.35;0.75;;;17.80;47.90;;;;;;5107353;27;45139;-75
2021/12/05 08:34:22;;;;;;;1.65;0.80;;;17.80;48.10;;;;;;5104418;27;47806;-75
2021/12/05 08:40:13;;;;;;;2.55;0.80;;;17.80;48.10;;;;;;5055253;27;45322;-75
2021/12/05 08:45:55;;;;;;;1.35;0.70;;;17.80;48.10;;;;;;5105763;27;45315;-76
2021/12/05 09:24:46;;;;;;;2.58;0.93;;;17.80;48.50;;;;;;5139261;27;45537;-78
2021/12/05 09:30:32;;;;;;;1.73;0.82;;;17.80;48.50;;;;;;5115559;27;45298;-78
2021/12/05 10:08:57;;;;;;;1.83;0.70;;;17.90;48.50;;;;;;5124582;27;45655;-77
2021/12/05 10:11:33;;;;;;;1.17;0.65;;;17.90;48.50;;;;;;5122451;27;45739;-77
2021/12/05 10:14:19;;;;;;;1.10;0.63;;;17.90;48.70;;;;;;5122619;27;45091;-78
2021/12/05 10:17:09;;;;;;;1.00;0.60;;;17.90;48.70;;;;;;5116491;27;45370;-78
2021/12/05 10:33:55;;;;;;;1.33;0.80;;;17.90;48.80;;;;;;5124877;27;45307;-76
2021/12/05 10:36:25;;;;;;;1.15;0.52;;;17.90;48.80;;;;;;5109899;27;45419;-76
2021/12/05 10:38:59;;;;;;;1.52;0.73;;;17.90;48.90;;;;;;5113229;27;45701;-76
2021/12/05 10:41:48;;;;;;;1.83;0.60;;;17.90;48.90;;;;;;5115918;27;48544;-78
2021/12/05 10:44:16;;;;;;;2.67;1.05;;;17.90;48.80;;;;;;5118749;27;46025;-77
2021/12/05 10:46:49;;;;;;;2.72;0.82;;;18.00;48.90;;;;;;5119308;27;45863;-77
2021/12/05 10:49:17;;;;;;;0.93;0.70;;;18.00;49.00;;;;;;5119388;27;45173;-77
2021/12/05 10:51:47;;;;;;;1.75;1.23;;;17.90;48.90;;;;;;5114025;27;47860;-79
2021/12/05 10:54:17;;;;;;;4.03;1.52;;;17.90;48.80;;;;;;5109167;27;45330;-77
2021/12/05 10:56:47;;;;;;;3.10;1.88;;;17.90;49.00;;;;;;5113221;27;45158;-76
2021/12/05 10:59:18;;;;;;;2.60;1.52;;;17.90;49.00;;;;;;5115954;27;45234;-76
2021/12/05 11:01:49;;;;;;;4.00;2.05;;;17.90;49.30;;;;;;5119031;27;46224;-79
2021/12/05 11:04:19;;;;;;;2.80;1.63;;;17.90;49.10;;;;;;5122911;27;45300;-78
2021/12/05 11:06:50;;;;;;;2.88;1.27;;;17.80;49.10;;;;;;5113513;27;45380;-78
2021/12/05 11:09:21;;;;;;;1.77;0.90;;;17.80;49.20;;;;;;5118952;27;45346;-80
2021/12/05 11:11:50;;;;;;;2.03;1.00;;;17.80;49.60;;;;;;5126142;27;48148;-78
2021/12/05 11:14:20;;;;;;;2.38;1.50;;;17.80;49.60;;;;;;5122408;27;45694;-78
2021/12/05 11:16:52;;;;;;;2.28;1.40;;;17.80;49.60;;;;;;5111842;27;45403;-79
2021/12/05 11:19:23;;;;;;;1.77;1.15;;;17.80;49.60;;;;;;5111038;27;45532;-78
2021/12/05 11:21:54;;;;;;;2.67;1.33;;;17.80;49.80;;;;;;5110759;27;47095;-78
2021/12/05 11:24:25;;;;;;;1.98;1.17;;;17.80;49.70;;;;;;5117948;27;45314;-77
2021/12/05 11:27:15;;;;;;;2.83;1.02;;;17.80;49.80;;;;;;5118228;27;45217;-78
2021/12/05 11:30:09;;;;;;;1.95;0.90;;;17.80;49.90;;;;;;5109838;27;45403;-78
2021/12/05 11:32:42;;;;;;;1.70;1.00;;;17.80;50.00;;;;;;5113501;27;47876;-79
2021/12/05 11:35:26;;;;;;;1.75;0.90;;;17.80;50.00;;;;;;5118194;27;45885;-79
2021/12/05 11:38:04;;;;;;;1.50;0.80;;;17.80;49.90;;;;;;5104601;27;45265;-79
2021/12/05 11:40:44;;;;;;;1.00;0.90;;;17.80;49.80;;;;;;5111924;27;45291;-78
2021/12/05 11:43:12;;;;;;;2.42;0.95;;;17.80;49.80;;;;;;5103081;27;48048;-78
2021/12/05 11:45:52;;;;;;;1.42;0.85;;;17.90;50.10;;;;;;5116583;27;45176;-79
2021/12/05 11:48:28;;;;;;;2.15;1.10;;;17.90;52.20;;;;;;5108011;27;45157;-78
2021/12/05 11:50:55;;;;;;;1.77;1.00;;;17.90;52.20;;;;;;5108784;27;45295;-79
2021/12/05 11:53:42;;;;;;;1.10;0.93;;;17.90;52.20;;;;;;5110256;27;47867;-79
2021/12/05 11:56:09;;;;;;;2.42;1.10;;;17.90;52.20;;;;;;5115871;27;45502;-80
2021/12/05 11:58:37;;;;;;;1.48;0.93;;;17.90;52.20;;;;;;5108592;27;45553;-80
2021/12/05 12:01:10;;;;;;;1.65;1.08;;;17.90;52.40;;;;;;5112138;27;45522;-80
2021/12/05 12:03:40;;;;;;;1.40;0.80;;;17.90;52.40;;;;;;5106483;27;47380;-80
2021/12/05 12:06:09;;;;;;;3.80;1.00;;;17.90;52.40;;;;;;5107148;27;45284;-79
2021/12/05 12:08:36;;;;;;;1.77;1.02;;;18.00;52.50;;;;;;5100814;27;45183;-80
2021/12/05 12:11:03;;;;;;;2.20;0.80;;;17.90;52.50;;;;;;5110943;27;45368;-80
2021/12/05 12:13:34;;;;;;;2.70;1.23;;;17.90;52.50;;;;;;5107666;27;47246;-80
2021/12/05 12:16:07;;;;;;;1.83;0.80;;;17.90;52.70;;;;;;5100435;27;45266;-79
2021/12/05 12:18:38;;;;;;;1.92;1.00;;;17.90;52.70;;;;;;5114495;27;45222;-80
2021/12/05 12:21:11;;;;;;;1.17;0.90;;;17.90;52.80;;;;;;5118529;27;45537;-80
2021/12/05 12:23:38;;;;;;;1.70;0.82;;;17.90;52.70;;;;;;5113249;27;47524;-80
2021/12/05 12:26:08;;;;;;;1.10;0.57;;;17.90;52.30;;;;;;5116921;27;45482;-80
2021/12/05 12:28:35;;;;;;;0.90;0.60;;;17.90;52.20;;;;;;5106237;27;46999;-80
2021/12/05 12:31:05;;;;;;;1.20;0.65;;;17.90;52.20;;;;;;5108696;27;45239;-80
2021/12/05 12:33:35;;;;;;;2.85;1.00;;;18.00;52.30;;;;;;5099932;27;47415;-80
2021/12/05 12:36:06;;;;;;;1.15;0.70;;;18.00;52.20;;;;;;5110526;27;46114;-80
2021/12/05 12:38:39;;;;;;;1.15;0.63;;;18.00;52.20;;;;;;5100799;27;45682;-80
2021/12/05 12:41:14;;;;;;;1.33;0.52;;;18.00;52.20;;;;;;5114400;27;45125;-80
2021/12/05 12:43:49;;;;;;;1.00;0.50;;;18.00;52.20;;;;;;5102655;27;47463;-80
2021/12/05 12:46:25;;;;;;;1.10;0.70;;;18.00;52.20;;;;;;5107488;27;45188;-80
2021/12/05 12:48:57;;;;;;;0.95;0.57;;;18.00;52.20;;;;;;5098520;27;45347;-80
2021/12/05 12:51:32;;;;;;;1.13;0.70;;;18.00;52.30;;;;;;5115408;27;45262;-79
2021/12/05 12:54:11;;;;;;;0.47;0.47;;;18.00;52.20;;;;;;5099691;27;46035;-79
2021/12/05 12:56:40;;;;;;;1.60;0.60;;;18.00;52.50;;;;;;5111254;27;45800;-80
2021/12/05 12:59:10;;;;;;;1.83;0.80;;;18.00;52.70;;;;;;5106699;27;45278;-80
2021/12/05 13:02:04;;;;;;;1.00;0.68;;;18.00;52.80;;;;;;5102178;27;45362;-79
2021/12/05 13:05:01;;;;;;;0.75;0.55;;;18.00;52.90;;;;;;5108258;27;47100;-79
2021/12/05 13:10:37;;;;;;;1.05;0.50;;;18.00;52.90;;;;;;5108654;27;45682;-80
2021/12/05 13:13:10;;;;;;;1.15;0.40;;;18.00;52.80;;;;;;5103537;27;45199;-80
2021/12/05 13:15:41;;;;;;;1.80;0.50;;;18.00;52.90;;;;;;5105156;27;45999;-79
2021/12/05 13:18:30;;;;;;;1.80;0.68;;;18.00;52.90;;;;;;5105575;27;45238;-81
2021/12/05 13:21:04;;;;;;;1.45;0.60;;;18.00;54.70;;;;;;5090758;27;45344;-79
2021/12/05 13:23:42;;;;;;;1.85;0.43;;;17.90;55.80;;;;;;5103081;27;45356;-79
2021/12/05 13:26:38;;;;;;;2.85;0.52;;;17.90;56.30;;;;;;5100215;27;46884;-79
2021/12/05 13:29:14;;;;;;;0.93;0.50;;;17.90;56.50;;;;;;5106446;27;45332;-79
2021/12/05 13:31:56;;;;;;;0.70;0.40;;;17.80;56.70;;;;;;5106269;27;45259;-79
2021/12/05 13:34:51;;;;;;;1.90;0.68;;;17.80;57.30;;;;;;5100706;27;45598;-79
2021/12/05 13:37:36;;;;;;;1.02;0.57;;;17.80;57.80;;;;;;5095755;27;46449;-79
